ストックホルム/アーランダ の空港の天気 - METARとTAF

ストックホルム・アーランダ空港 ( ESSA / ARN ) - スウェーデン ストックホルム
飛行場実況気象(Metar)
観測時間11/14 17:50 CET (11/14 16:50 UTC)
風向・風速南西 4m/s
視程10km以上
天気現象
全天の8割程度の雲 雲底高度 580m
気温8℃
湿度81%
気圧1022hPa
METARESSA 141650Z 23007KT 9999 BKN019 08/05 Q1022 R01L/29//95 R08/29//95 R01R/29//95 NOSIG
過去の天気等 Google飛行場航空写真 Wunderground天気予報

過去48時間のMETAR

飛行場予報(TAF)
発表時間: 11/14 12:30 CET (11/14 11:30 UTC)
予報対象時間: 14日13時 CET ~ 15日13時 CET
風向・風速西 4m/s
視程10km以上
全天の8割程度の雲 雲底高度 400m
14日14時 CET ~ 14日16時 CET に徐々に
全天の8割程度の雲 雲底高度 550m
14日19時 CET から 確率 40% で
全天の8割程度の雲 雲底高度 300m
15日2時 CET から 確率 40% で
視程4000m
天気現象もや
全天の8割程度の雲 雲底高度 120m
TAF ESSA 141130Z 1412/1512 26008KT 9999 BKN013
BECMG 1413/1415 BKN018
PROB40 1418/1501 BKN010
PROB40 1501/1506 4000 BR BKN004